createdAt,value
2022-09-11T00:02:07.385Z,99.90
2022-09-11T00:04:52.942Z,99.90
2022-09-11T00:08:35.192Z,99.90
2022-09-11T00:11:21.898Z,99.90
2022-09-11T00:15:03.450Z,99.90
2022-09-11T00:17:48.914Z,99.90
2022-09-11T00:21:31.058Z,99.90
2022-09-11T00:37:24.904Z,99.90
2022-09-11T00:40:10.565Z,99.90
2022-09-11T00:43:13.908Z,99.90
2022-09-11T00:46:04.678Z,99.90
2022-09-11T00:53:21.046Z,99.90
2022-09-11T00:56:08.411Z,99.90
2022-09-11T00:58:55.744Z,99.90
2022-09-11T01:02:37.804Z,99.90
2022-09-11T01:05:25.143Z,99.90
2022-09-11T01:08:10.730Z,99.90
2022-09-11T01:15:53.209Z,99.90
2022-09-11T01:18:38.862Z,99.90
2022-09-11T01:22:21.174Z,99.90
2022-09-11T01:25:21.611Z,99.90
2022-09-11T01:28:51.249Z,99.90
2022-09-11T01:31:45.861Z,99.90
2022-09-11T01:35:27.662Z,99.90
2022-09-11T01:38:40.693Z,99.90
2022-09-11T01:42:22.763Z,99.90
2022-09-11T01:45:09.452Z,99.90
2022-09-11T01:52:57.959Z,99.90
2022-09-11T01:55:49.984Z,99.90
2022-09-11T02:03:33.019Z,99.90
2022-09-11T02:19:37.781Z,99.90
2022-09-11T02:22:23.293Z,99.90
2022-09-11T02:25:13.695Z,99.90
2022-09-11T02:27:59.390Z,99.90
2022-09-11T02:30:45.873Z,99.90
2022-09-11T02:38:26.917Z,99.90
2022-09-11T02:41:21.801Z,99.90
2022-09-11T02:44:31.801Z,99.90
2022-09-11T02:51:50.841Z,99.90
2022-09-11T02:55:18.817Z,99.90
2022-09-11T02:59:00.729Z,99.90
2022-09-11T03:02:04.454Z,99.90
2022-09-11T03:05:46.561Z,99.90
2022-09-11T03:08:32.350Z,99.90
2022-09-11T03:12:14.763Z,99.90
2022-09-11T03:15:00.401Z,99.90
2022-09-11T03:18:42.440Z,99.90
2022-09-11T03:21:27.660Z,99.90
2022-09-11T03:25:09.937Z,99.90
2022-09-11T03:27:55.488Z,99.90
2022-09-11T03:31:39.380Z,99.90
2022-09-11T03:34:25.767Z,99.90
2022-09-11T03:38:07.820Z,99.90
2022-09-11T03:40:55.033Z,99.90
2022-09-11T04:00:43.213Z,99.90
2022-09-11T04:03:31.541Z,99.90
2022-09-11T04:07:13.583Z,99.90
2022-09-11T04:09:59.090Z,99.90
2022-09-11T04:13:41.110Z,99.90
2022-09-11T04:16:26.797Z,99.90
2022-09-11T04:20:08.809Z,99.90
2022-09-11T04:22:54.263Z,99.90
2022-09-11T04:26:36.624Z,99.90
2022-09-11T04:29:22.565Z,99.90
2022-09-11T04:33:04.845Z,99.90
2022-09-11T04:35:50.407Z,99.90
2022-09-11T04:39:32.423Z,99.90
2022-09-11T04:42:19.429Z,99.90
2022-09-11T04:45:05.178Z,99.90
2022-09-11T04:47:52.770Z,99.90
2022-09-11T04:50:38.154Z,99.90
2022-09-11T04:58:20.234Z,99.90
2022-09-11T05:01:07.446Z,99.90
2022-09-11T05:03:53.174Z,99.90
2022-09-11T05:06:39.134Z,99.90
2022-09-11T05:09:26.887Z,99.90
2022-09-11T05:12:11.987Z,99.90
2022-09-11T05:15:54.272Z,99.90
2022-09-11T05:18:41.270Z,99.90
2022-09-11T05:21:27.974Z,99.90
2022-09-11T05:29:12.174Z,99.90
2022-09-11T05:32:03.032Z,99.90
2022-09-11T05:34:48.359Z,99.90
2022-09-11T05:37:33.990Z,99.90
2022-09-11T05:40:19.520Z,99.90
2022-09-11T05:55:25.079Z,99.90
2022-09-11T05:58:11.352Z,99.90
2022-09-11T06:01:04.770Z,99.90
2022-09-11T06:03:50.768Z,99.90
2022-09-11T06:06:36.307Z,99.90
2022-09-11T06:09:21.799Z,99.90
2022-09-11T06:12:07.429Z,99.90
2022-09-11T06:14:52.707Z,99.90
2022-09-11T06:17:38.295Z,99.90
2022-09-11T06:20:25.492Z,99.90
2022-09-11T06:23:12.429Z,99.90
2022-09-11T06:26:11.766Z,99.90
2022-09-11T06:28:57.268Z,99.90
2022-09-11T06:31:43.075Z,99.90
2022-09-11T06:34:28.632Z,99.90
2022-09-11T06:37:14.338Z,99.90
2022-09-11T06:39:59.622Z,99.90
2022-09-11T06:42:45.608Z,99.90
2022-09-11T06:45:33.969Z,99.90
2022-09-11T06:53:16.471Z,99.90
2022-09-11T06:56:03.721Z,99.90
2022-09-11T06:58:50.371Z,99.90
2022-09-11T07:01:36.010Z,99.90
2022-09-11T07:04:23.700Z,99.90
2022-09-11T07:07:09.360Z,99.90
2022-09-11T07:09:54.743Z,99.90
2022-09-11T07:12:41.684Z,99.90
2022-09-11T07:15:28.062Z,99.90
2022-09-11T07:18:13.617Z,99.90
2022-09-11T07:21:00.090Z,99.90
2022-09-11T07:23:48.776Z,99.90
2022-09-11T07:26:36.344Z,99.90
2022-09-11T07:29:22.374Z,99.90
2022-09-11T07:32:08.533Z,99.90
2022-09-11T07:34:53.978Z,99.90
2022-09-11T07:37:39.644Z,99.90
2022-09-11T07:40:25.310Z,99.90
2022-09-11T07:43:11.005Z,99.90
2022-09-11T07:45:56.683Z,99.90
2022-09-11T07:49:38.962Z,99.90
2022-09-11T07:52:24.473Z,99.90
2022-09-11T07:55:10.496Z,99.90
2022-09-11T07:57:55.807Z,99.90
2022-09-11T08:00:43.307Z,99.90
2022-09-11T08:03:34.046Z,99.90
2022-09-11T08:06:25.101Z,99.90
2022-09-11T08:09:15.209Z,99.90
2022-09-11T08:12:02.144Z,99.90
2022-09-11T08:14:47.590Z,99.90
2022-09-11T08:17:33.243Z,99.90
2022-09-11T08:20:18.884Z,99.90
2022-09-11T08:23:04.610Z,99.90
2022-09-11T08:25:51.256Z,99.90
2022-09-11T08:28:38.517Z,99.90
2022-09-11T08:31:27.267Z,99.90
2022-09-11T08:34:13.180Z,99.90
2022-09-11T08:36:58.481Z,99.90
2022-09-11T08:39:44.240Z,99.90
2022-09-11T08:42:29.663Z,99.90
2022-09-11T08:45:18.302Z,99.90
2022-09-11T08:52:41.479Z,99.90
2022-09-11T08:55:39.628Z,99.90
2022-09-11T08:59:02.528Z,99.90
2022-09-11T09:02:00.071Z,99.90
2022-09-11T09:05:33.183Z,99.90
2022-09-11T09:08:21.691Z,99.90
2022-09-11T09:11:37.358Z,99.90
2022-09-11T09:14:29.245Z,99.90
2022-09-11T09:21:59.555Z,99.90
2022-09-11T09:25:00.384Z,99.90
2022-09-11T09:32:42.752Z,99.90
2022-09-11T09:35:39.419Z,99.90
2022-09-11T09:38:31.639Z,97.90
2022-09-11T09:41:28.239Z,97.60
2022-09-11T09:44:29.152Z,96.00
2022-09-11T09:47:15.331Z,96.30
2022-09-11T09:50:01.697Z,97.60
2022-09-11T09:52:49.882Z,97.90
2022-09-11T09:55:36.164Z,99.10
2022-09-11T09:58:32.571Z,99.90
2022-09-11T10:01:49.767Z,99.60
2022-09-11T10:04:35.485Z,99.90
2022-09-11T10:07:22.658Z,99.90
2022-09-11T10:10:26.727Z,99.90
2022-09-11T10:13:25.197Z,99.90
2022-09-11T10:16:26.075Z,99.90
2022-09-11T10:19:42.379Z,99.90
2022-09-11T10:22:29.271Z,99.90
2022-09-11T10:25:26.837Z,99.90
2022-09-11T10:28:17.414Z,99.90
2022-09-11T10:32:00.133Z,99.90
2022-09-11T10:34:45.870Z,99.90
2022-09-11T10:37:32.048Z,99.90
2022-09-11T10:40:23.175Z,99.90
2022-09-11T10:43:25.618Z,99.90
2022-09-11T10:46:46.095Z,99.90
2022-09-11T10:49:31.543Z,99.90
2022-09-11T10:52:22.345Z,99.90
2022-09-11T10:55:15.895Z,99.90
2022-09-11T10:58:18.949Z,99.90
2022-09-11T11:01:04.671Z,99.90
2022-09-11T11:03:51.079Z,99.90
2022-09-11T11:07:04.484Z,99.10
2022-09-11T11:10:17.019Z,97.40
2022-09-11T11:13:26.607Z,95.30
2022-09-11T11:16:41.454Z,96.60
2022-09-11T11:19:47.179Z,96.00
2022-09-11T11:22:53.737Z,95.10
2022-09-11T11:25:59.308Z,95.50
2022-09-11T11:33:40.939Z,95.70
2022-09-11T11:36:38.462Z,95.90
2022-09-11T11:39:23.549Z,94.60
2022-09-11T11:42:25.926Z,95.90
2022-09-11T11:45:27.347Z,94.80
2022-09-11T11:48:31.375Z,96.00
2022-09-11T11:51:27.586Z,96.60
2022-09-11T11:54:39.900Z,95.50
2022-09-11T11:57:31.354Z,95.30
2022-09-11T12:00:18.950Z,93.80
2022-09-11T12:03:32.503Z,93.40
2022-09-11T12:06:18.217Z,93.90
2022-09-11T12:09:05.534Z,92.90
2022-09-11T12:11:53.767Z,93.90
2022-09-11T12:14:54.237Z,92.80
2022-09-11T12:17:40.898Z,93.60
2022-09-11T12:20:30.024Z,93.90
2022-09-11T12:23:30.487Z,93.00
2022-09-11T12:26:25.078Z,92.80
2022-09-11T12:33:47.855Z,93.00
2022-09-11T12:37:04.717Z,93.00
2022-09-11T12:40:03.840Z,92.20
2022-09-11T12:42:59.157Z,91.50
2022-09-11T12:45:47.879Z,90.90
2022-09-11T12:48:42.732Z,91.40
2022-09-11T12:51:33.929Z,91.50
2022-09-11T12:54:24.303Z,91.30
2022-09-11T12:57:19.375Z,91.30
2022-09-11T13:00:20.388Z,91.40
2022-09-11T13:03:12.288Z,91.80
2022-09-11T13:06:07.616Z,91.70
2022-09-11T13:09:00.069Z,91.20
2022-09-11T13:12:23.852Z,91.30
2022-09-11T13:15:33.935Z,91.50
2022-09-11T13:18:19.689Z,90.70
2022-09-11T13:21:11.452Z,90.30
2022-09-11T13:24:02.996Z,89.10
2022-09-11T13:26:55.441Z,88.80
2022-09-11T13:34:37.937Z,87.10
2022-09-11T13:37:32.898Z,86.20
2022-09-11T13:40:37.294Z,86.80
2022-09-11T13:43:30.834Z,86.50
2022-09-11T13:46:16.384Z,84.90
2022-09-11T13:49:18.118Z,84.40
2022-09-11T13:52:10.870Z,84.80
2022-09-11T13:55:04.613Z,85.60
2022-09-11T13:57:51.314Z,84.60
2022-09-11T14:00:38.842Z,83.60
2022-09-11T14:03:32.333Z,83.00
2022-09-11T14:06:23.595Z,83.40
2022-09-11T14:09:20.235Z,85.50
2022-09-11T14:12:05.991Z,80.00
2022-09-11T14:14:58.253Z,80.20
2022-09-11T14:17:46.563Z,76.80
2022-09-11T14:20:33.056Z,75.10
2022-09-11T14:23:24.668Z,73.50
2022-09-11T14:26:19.740Z,72.90
2022-09-11T14:34:02.219Z,71.90
2022-09-11T14:37:06.487Z,70.50
2022-09-11T14:40:03.306Z,69.70
2022-09-11T14:42:48.867Z,68.80
2022-09-11T14:45:35.169Z,66.90
2022-09-11T14:48:21.088Z,68.30
2022-09-11T14:51:13.675Z,65.50
2022-09-11T14:54:01.357Z,64.70
2022-09-11T14:56:48.206Z,63.80
2022-09-11T14:59:35.559Z,64.10
2022-09-11T15:02:27.913Z,64.50
2022-09-11T15:05:16.636Z,64.80
2022-09-11T15:08:03.932Z,64.00
2022-09-11T15:10:58.107Z,64.20
2022-09-11T15:14:13.499Z,64.30
2022-09-11T15:16:58.182Z,63.90
2022-09-11T15:19:47.726Z,64.80
2022-09-11T15:22:33.156Z,64.20
2022-09-11T15:25:18.846Z,64.10
2022-09-11T15:28:04.105Z,64.60
2022-09-11T15:31:46.397Z,62.40
2022-09-11T15:34:33.022Z,63.80
2022-09-11T15:37:18.468Z,61.70
2022-09-11T15:40:04.366Z,62.50
2022-09-11T15:42:50.086Z,63.80
2022-09-11T15:45:43.007Z,64.00
2022-09-11T15:48:31.051Z,63.80
2022-09-11T15:51:21.367Z,63.60
2022-09-11T15:54:08.945Z,64.10
2022-09-11T15:56:55.004Z,65.40
2022-09-11T15:59:41.090Z,66.30
2022-09-11T16:02:27.162Z,65.90
2022-09-11T16:05:12.662Z,64.10
2022-09-11T16:07:58.231Z,65.90
2022-09-11T16:10:44.054Z,64.50
2022-09-11T16:13:31.571Z,64.10
2022-09-11T16:16:17.903Z,65.30
2022-09-11T16:19:03.845Z,64.20
2022-09-11T16:21:50.093Z,64.30
2022-09-11T16:24:37.597Z,64.70
2022-09-11T16:27:24.375Z,65.20
2022-09-11T16:35:07.094Z,63.80
2022-09-11T16:37:53.715Z,65.40
2022-09-11T16:40:39.138Z,65.00
2022-09-11T16:43:24.818Z,65.10
2022-09-11T16:46:13.171Z,66.00
2022-09-11T16:49:01.665Z,64.50
2022-09-11T16:51:47.832Z,64.50
2022-09-11T16:54:33.162Z,64.50
2022-09-11T16:57:19.218Z,65.70
2022-09-11T17:00:07.777Z,66.30
2022-09-11T17:02:53.094Z,67.30
2022-09-11T17:05:39.132Z,68.50
2022-09-11T17:08:24.978Z,70.20
2022-09-11T17:11:14.259Z,71.00
2022-09-11T17:14:03.831Z,69.50
2022-09-11T17:16:50.165Z,71.80
2022-09-11T17:19:36.123Z,70.80
2022-09-11T17:22:21.685Z,70.90
2022-09-11T17:25:08.189Z,72.40
2022-09-11T17:27:54.357Z,75.30
2022-09-11T17:31:36.742Z,77.00
2022-09-11T17:34:22.077Z,78.00
2022-09-11T17:37:07.665Z,80.90
2022-09-11T17:39:53.847Z,83.80
2022-09-11T17:42:39.422Z,85.30
2022-09-11T17:45:25.137Z,89.60
2022-09-11T17:48:10.662Z,90.50
2022-09-11T17:51:07.351Z,90.30
2022-09-11T17:53:56.319Z,90.70
2022-09-11T17:56:42.359Z,92.10
2022-09-11T17:59:28.124Z,93.10
2022-09-11T18:02:18.247Z,93.50
2022-09-11T18:05:04.278Z,95.00
2022-09-11T18:07:50.922Z,95.80
2022-09-11T18:10:37.556Z,95.40
2022-09-11T18:13:22.922Z,96.30
2022-09-11T18:16:11.469Z,96.20
2022-09-11T18:18:57.365Z,96.20
2022-09-11T18:21:44.689Z,97.30
2022-09-11T18:24:33.289Z,97.10
2022-09-11T18:27:19.884Z,96.80
2022-09-11T18:35:02.460Z,96.60
2022-09-11T18:37:48.040Z,97.40
2022-09-11T18:40:34.107Z,98.30
2022-09-11T18:43:19.452Z,97.70
2022-09-11T18:46:05.377Z,99.60
2022-09-11T18:48:51.144Z,99.90
2022-09-11T18:51:36.813Z,99.90
2022-09-11T18:54:22.147Z,99.90
2022-09-11T18:57:08.682Z,99.90
2022-09-11T18:59:54.256Z,99.90
2022-09-11T19:02:39.841Z,99.90
2022-09-11T19:05:25.375Z,99.90
2022-09-11T19:08:10.878Z,99.90
2022-09-11T19:10:56.153Z,99.90
2022-09-11T19:13:42.619Z,99.90
2022-09-11T19:16:28.477Z,99.90
2022-09-11T19:19:14.125Z,99.90
2022-09-11T19:22:00.326Z,99.90
2022-09-11T19:24:46.089Z,99.90
2022-09-11T19:27:31.848Z,99.90
2022-09-11T19:31:14.066Z,99.90
2022-09-11T19:34:03.661Z,99.90
2022-09-11T19:36:51.393Z,99.90
2022-09-11T19:39:37.118Z,99.90
2022-09-11T19:42:23.924Z,99.90
2022-09-11T19:45:09.387Z,99.90
2022-09-11T19:47:54.794Z,99.90
2022-09-11T19:50:47.286Z,99.90
2022-09-11T19:53:32.990Z,99.90
2022-09-11T19:56:19.239Z,99.90
2022-09-11T19:59:06.307Z,99.90
2022-09-11T20:01:51.822Z,99.90
2022-09-11T20:04:37.502Z,99.90
2022-09-11T20:07:23.117Z,99.90
2022-09-11T20:10:10.206Z,99.90
2022-09-11T20:12:55.514Z,99.90
2022-09-11T20:15:41.988Z,99.90
2022-09-11T20:18:27.152Z,99.90
2022-09-11T20:21:15.690Z,99.90
2022-09-11T20:24:01.415Z,99.90
2022-09-11T20:26:46.643Z,99.90
2022-09-11T20:29:32.920Z,99.90
2022-09-11T20:33:15.140Z,99.90
2022-09-11T20:36:00.794Z,99.90
2022-09-11T20:38:53.489Z,99.90
2022-09-11T20:41:39.381Z,99.90
2022-09-11T20:44:24.904Z,99.90
2022-09-11T20:47:12.178Z,99.90
2022-09-11T20:49:57.405Z,99.90
2022-09-11T20:52:46.641Z,99.90
2022-09-11T20:55:32.186Z,99.90
2022-09-11T20:58:17.478Z,99.90
2022-09-11T21:01:04.033Z,99.90
2022-09-11T21:03:54.380Z,99.90
2022-09-11T21:06:40.278Z,99.90
2022-09-11T21:09:25.632Z,99.90
2022-09-11T21:12:11.450Z,99.90
2022-09-11T21:14:56.594Z,99.90
2022-09-11T21:17:42.245Z,99.90
2022-09-11T21:20:27.618Z,99.90
2022-09-11T21:23:13.026Z,99.90
2022-09-11T21:25:59.081Z,99.90
2022-09-11T21:28:44.781Z,99.90
2022-09-11T21:36:26.901Z,99.90
2022-09-11T21:39:12.785Z,99.90
2022-09-11T21:41:58.235Z,99.90
2022-09-11T21:44:43.741Z,99.90
2022-09-11T21:47:29.271Z,99.90
2022-09-11T21:50:14.798Z,99.90
2022-09-11T21:53:00.473Z,99.90
2022-09-11T21:55:47.401Z,99.90
2022-09-11T21:58:33.233Z,99.90
2022-09-11T22:01:20.444Z,99.90
2022-09-11T22:04:06.221Z,99.90
2022-09-11T22:06:51.746Z,99.90
2022-09-11T22:09:38.188Z,99.90
2022-09-11T22:12:23.935Z,99.90
2022-09-11T22:15:10.348Z,99.90
2022-09-11T22:17:55.472Z,99.90
2022-09-11T22:20:41.855Z,99.90
2022-09-11T22:23:29.049Z,99.90
2022-09-11T22:26:17.979Z,99.90
2022-09-11T22:29:04.213Z,99.90
2022-09-11T22:32:46.528Z,99.90
2022-09-11T22:35:34.356Z,99.90
2022-09-11T22:38:19.990Z,99.90
2022-09-11T22:41:06.299Z,99.90
2022-09-11T22:43:52.029Z,99.90
2022-09-11T22:46:37.634Z,99.90
2022-09-11T22:49:23.643Z,99.90
2022-09-11T22:52:09.350Z,99.90
2022-09-11T22:54:54.803Z,99.90
2022-09-11T22:57:40.345Z,99.90
2022-09-11T23:00:25.929Z,99.90
2022-09-11T23:03:11.425Z,99.90
2022-09-11T23:06:17.342Z,99.90
2022-09-11T23:09:05.351Z,99.90
2022-09-11T23:11:50.548Z,99.90
2022-09-11T23:14:36.248Z,99.90
2022-09-11T23:17:21.901Z,99.90
2022-09-11T23:20:07.518Z,99.90
2022-09-11T23:22:52.827Z,99.90
2022-09-11T23:25:43.156Z,99.90
2022-09-11T23:28:28.407Z,99.90
2022-09-11T23:36:10.405Z,99.90
2022-09-11T23:38:55.965Z,99.90
2022-09-11T23:41:41.616Z,99.90
2022-09-11T23:44:27.269Z,99.90
2022-09-11T23:47:12.885Z,99.90
2022-09-11T23:49:58.184Z,99.90
2022-09-11T23:52:43.729Z,99.90
2022-09-11T23:55:29.191Z,99.90
2022-09-11T23:58:14.539Z,99.90
